createdAt,value
2022-09-30T00:01:17.137Z,54.33
2022-09-30T00:04:05.721Z,56.07
2022-09-30T00:06:55.091Z,56.13
2022-09-30T00:09:44.962Z,56.53
2022-09-30T00:12:33.336Z,56.47
2022-09-30T00:15:24.387Z,55.50
2022-09-30T00:18:12.636Z,56.40
2022-09-30T00:21:02.045Z,56.63
2022-09-30T00:23:50.432Z,56.90
2022-09-30T00:26:40.120Z,56.97
2022-09-30T00:29:28.410Z,56.00
2022-09-30T00:32:16.802Z,56.70
2022-09-30T00:35:05.660Z,56.80
2022-09-30T00:37:55.250Z,55.93
2022-09-30T00:40:44.203Z,55.67
2022-09-30T00:43:45.678Z,56.43
2022-09-30T00:46:43.679Z,55.70
2022-09-30T00:49:32.912Z,55.93
2022-09-30T00:52:21.409Z,56.90
2022-09-30T00:55:18.377Z,56.63
2022-09-30T00:58:09.835Z,56.50
2022-09-30T01:01:02.913Z,56.33
2022-09-30T01:03:55.682Z,57.33
2022-09-30T01:06:45.152Z,56.53
2022-09-30T01:09:35.017Z,56.40
2022-09-30T01:12:25.820Z,55.90
2022-09-30T01:15:14.336Z,55.70
2022-09-30T01:18:12.022Z,54.20
2022-09-30T01:21:51.950Z,54.53
2022-09-30T01:24:51.647Z,56.17
2022-09-30T01:28:06.768Z,54.97
2022-09-30T01:31:12.655Z,55.17
2022-09-30T01:34:11.376Z,55.70
2022-09-30T01:37:09.155Z,55.63
2022-09-30T01:40:04.794Z,56.33
2022-09-30T01:43:03.764Z,54.10
2022-09-30T01:46:00.235Z,54.60
2022-09-30T01:48:57.558Z,54.43
2022-09-30T01:51:53.610Z,53.00
2022-09-30T01:54:48.266Z,53.83
2022-09-30T01:57:45.163Z,54.37
2022-09-30T02:00:37.519Z,52.63
2022-09-30T02:03:32.048Z,53.37
2022-09-30T02:06:26.492Z,53.77
2022-09-30T02:09:17.941Z,53.73
2022-09-30T02:12:10.685Z,53.13
2022-09-30T02:15:03.930Z,52.50
2022-09-30T02:17:58.372Z,53.03
2022-09-30T02:20:50.696Z,53.13
2022-09-30T02:23:45.774Z,51.93
2022-09-30T02:26:37.686Z,50.73
2022-09-30T02:29:31.075Z,52.43
2022-09-30T02:32:24.838Z,50.47
2022-09-30T02:35:20.013Z,51.00
2022-09-30T02:38:15.224Z,51.63
2022-09-30T02:41:10.548Z,51.13
2022-09-30T02:44:01.278Z,52.37
2022-09-30T02:46:58.437Z,50.40
2022-09-30T02:49:51.336Z,51.40
2022-09-30T02:52:49.416Z,52.07
2022-09-30T02:55:52.850Z,50.27
2022-09-30T02:58:44.696Z,51.23
2022-09-30T03:01:33.502Z,50.67
2022-09-30T03:04:26.314Z,49.80
2022-09-30T03:07:15.708Z,50.50
2022-09-30T03:10:14.309Z,50.53
2022-09-30T03:13:19.743Z,50.63
2022-09-30T03:16:20.514Z,50.80
2022-09-30T03:19:23.953Z,50.03
2022-09-30T03:22:30.536Z,51.13
2022-09-30T03:25:28.447Z,51.47
2022-09-30T03:28:26.403Z,51.13
2022-09-30T03:31:26.109Z,50.30
2022-09-30T03:34:26.998Z,51.97
2022-09-30T03:37:25.724Z,52.80
2022-09-30T03:40:19.546Z,52.17
2022-09-30T03:43:16.161Z,52.90
2022-09-30T03:46:11.289Z,52.73
2022-09-30T03:49:04.255Z,53.30
2022-09-30T03:51:53.801Z,55.93
2022-09-30T03:54:50.917Z,53.87
2022-09-30T03:57:39.511Z,56.93
2022-09-30T04:00:27.994Z,56.03
2022-09-30T04:03:16.419Z,56.00
2022-09-30T04:06:06.412Z,55.50
2022-09-30T04:08:55.037Z,55.57
2022-09-30T04:11:43.437Z,56.33
2022-09-30T04:14:31.886Z,55.60
2022-09-30T04:17:20.356Z,57.13
2022-09-30T04:20:09.388Z,57.63
2022-09-30T04:23:00.100Z,57.70
2022-09-30T04:25:53.513Z,57.37
2022-09-30T04:28:42.217Z,56.87
2022-09-30T04:31:30.655Z,57.67
2022-09-30T04:34:19.075Z,58.40
2022-09-30T04:37:10.786Z,57.20
2022-09-30T04:40:02.011Z,57.77
2022-09-30T04:42:50.370Z,58.30
2022-09-30T04:45:39.392Z,57.93
2022-09-30T04:48:28.954Z,57.40
2022-09-30T04:51:19.624Z,58.30
2022-09-30T04:54:07.981Z,58.70
2022-09-30T04:56:57.759Z,60.10
2022-09-30T04:59:46.122Z,57.87
2022-09-30T05:02:34.448Z,58.47
2022-09-30T05:05:22.834Z,57.13
2022-09-30T05:08:11.290Z,58.13
2022-09-30T05:11:01.739Z,56.60
2022-09-30T05:13:52.111Z,56.23
2022-09-30T05:16:40.517Z,57.83
2022-09-30T05:19:28.866Z,56.40
2022-09-30T05:22:17.403Z,55.83
2022-09-30T05:25:06.625Z,58.57
2022-09-30T05:27:54.968Z,57.47
2022-09-30T05:30:45.516Z,58.73
2022-09-30T05:33:36.033Z,57.80
2022-09-30T05:36:24.533Z,59.37
2022-09-30T05:39:13.556Z,58.40
2022-09-30T05:42:01.986Z,58.40
2022-09-30T05:44:50.498Z,59.37
2022-09-30T05:47:40.404Z,57.87
2022-09-30T05:50:29.372Z,59.60
2022-09-30T05:53:19.494Z,62.10
2022-09-30T05:56:09.195Z,61.00
2022-09-30T05:58:58.988Z,58.87
2022-09-30T06:01:47.494Z,59.37
2022-09-30T06:04:37.826Z,60.97
2022-09-30T06:07:26.505Z,61.73
2022-09-30T06:10:14.850Z,61.90
2022-09-30T06:13:04.166Z,59.43
2022-09-30T06:15:59.868Z,58.60
2022-09-30T06:18:48.287Z,58.23
2022-09-30T06:21:39.523Z,58.07
2022-09-30T06:24:28.181Z,58.03
2022-09-30T06:27:16.626Z,58.87
2022-09-30T06:30:05.660Z,58.30
2022-09-30T06:32:57.385Z,57.07
2022-09-30T06:35:47.505Z,56.87
2022-09-30T06:38:39.931Z,57.93
2022-09-30T06:41:29.012Z,54.80
2022-09-30T06:44:17.369Z,56.87
2022-09-30T06:47:10.740Z,54.67
2022-09-30T06:50:04.267Z,54.70
2022-09-30T06:52:52.767Z,55.07
2022-09-30T06:55:43.150Z,54.83
2022-09-30T06:58:31.600Z,56.03
2022-09-30T07:01:21.099Z,54.00
2022-09-30T07:04:11.488Z,53.17
2022-09-30T07:06:59.929Z,54.00
2022-09-30T07:09:48.531Z,52.37
2022-09-30T07:12:38.596Z,52.37
2022-09-30T07:15:27.023Z,53.37
2022-09-30T07:18:20.663Z,54.00
2022-09-30T07:21:09.029Z,51.47
2022-09-30T07:23:59.005Z,49.63
2022-09-30T07:26:47.291Z,50.93
2022-09-30T07:29:56.857Z,50.67
2022-09-30T07:32:45.345Z,51.33
2022-09-30T07:35:34.126Z,49.30
2022-09-30T07:38:24.282Z,52.87
2022-09-30T07:41:14.482Z,49.10
2022-09-30T07:44:03.280Z,49.73
2022-09-30T07:46:52.996Z,48.27
2022-09-30T07:49:41.513Z,48.53
2022-09-30T07:52:29.852Z,48.87
2022-09-30T07:55:18.147Z,50.37
2022-09-30T07:58:08.256Z,48.53
2022-09-30T08:00:56.571Z,49.53
2022-09-30T08:03:46.473Z,49.57
2022-09-30T08:06:38.927Z,49.30
2022-09-30T08:09:29.710Z,49.37
2022-09-30T08:12:18.265Z,49.93
2022-09-30T08:15:09.743Z,48.93
2022-09-30T08:17:58.045Z,47.93
2022-09-30T08:20:47.944Z,48.87
2022-09-30T08:23:36.484Z,48.87
2022-09-30T08:26:25.199Z,49.10
2022-09-30T08:29:20.348Z,47.83
2022-09-30T08:32:09.285Z,48.73
2022-09-30T08:34:57.660Z,49.63
2022-09-30T08:37:47.430Z,48.37
2022-09-30T08:40:54.375Z,48.00
2022-09-30T08:43:55.628Z,48.90
2022-09-30T08:46:48.220Z,49.13
2022-09-30T08:49:50.078Z,47.73
2022-09-30T08:52:49.487Z,48.23
2022-09-30T08:55:42.928Z,48.47
2022-09-30T08:58:33.576Z,46.63
2022-09-30T09:01:31.078Z,45.80
2022-09-30T09:04:20.062Z,45.67
2022-09-30T09:07:18.758Z,45.93
2022-09-30T09:10:20.069Z,46.27
2022-09-30T09:13:19.495Z,46.20
2022-09-30T09:16:14.213Z,45.80
2022-09-30T09:19:10.825Z,46.37
2022-09-30T09:22:03.201Z,44.63
2022-09-30T09:24:53.654Z,45.30
2022-09-30T09:27:51.169Z,44.23
2022-09-30T09:30:47.203Z,44.73
2022-09-30T09:33:39.557Z,44.00
2022-09-30T09:36:45.581Z,43.50
2022-09-30T09:39:51.030Z,42.37
2022-09-30T09:42:59.322Z,43.47
2022-09-30T09:45:57.258Z,42.63
2022-09-30T09:48:46.014Z,43.63
2022-09-30T09:51:37.349Z,43.00
2022-09-30T09:54:31.247Z,44.20
2022-09-30T09:57:25.901Z,43.90
2022-09-30T10:00:51.242Z,43.93
2022-09-30T10:03:40.984Z,41.57
2022-09-30T10:06:44.653Z,42.20
2022-09-30T10:09:35.391Z,42.53
2022-09-30T10:12:29.906Z,43.10
2022-09-30T10:15:23.242Z,43.23
2022-09-30T10:18:19.079Z,44.83
2022-09-30T10:21:20.760Z,45.00
2022-09-30T10:24:21.518Z,43.57
2022-09-30T10:27:27.984Z,43.80
2022-09-30T10:30:32.396Z,41.93
2022-09-30T10:33:25.452Z,40.90
2022-09-30T10:36:18.993Z,42.27
2022-09-30T10:39:09.569Z,41.43
2022-09-30T10:42:03.354Z,40.87
2022-09-30T10:44:56.113Z,40.47
2022-09-30T10:47:47.341Z,39.50
2022-09-30T10:50:36.083Z,38.73
2022-09-30T10:53:29.754Z,40.80
2022-09-30T10:56:33.817Z,40.27
2022-09-30T10:59:33.236Z,40.37
2022-09-30T11:02:30.121Z,38.60
2022-09-30T11:05:21.125Z,37.70
2022-09-30T11:08:19.409Z,43.20
2022-09-30T11:11:14.354Z,37.30
2022-09-30T11:14:17.231Z,37.53
2022-09-30T11:17:21.783Z,37.67
2022-09-30T11:20:20.539Z,36.97
2022-09-30T11:23:16.269Z,37.60
2022-09-30T11:26:13.659Z,37.17
2022-09-30T11:29:15.918Z,35.40
2022-09-30T11:32:14.117Z,35.20
2022-09-30T11:35:18.207Z,32.37
2022-09-30T11:38:16.175Z,32.50
2022-09-30T11:41:10.194Z,32.77
2022-09-30T11:44:09.136Z,32.63
2022-09-30T11:47:24.622Z,32.37
2022-09-30T11:50:35.135Z,32.13
2022-09-30T11:53:35.253Z,33.23
2022-09-30T11:56:41.413Z,32.60
2022-09-30T11:59:38.736Z,32.30
2022-09-30T12:02:36.636Z,31.33
2022-09-30T12:05:28.608Z,32.20
2022-09-30T12:08:21.015Z,33.00
2022-09-30T12:11:13.460Z,32.67
2022-09-30T12:14:06.792Z,31.37
2022-09-30T12:16:57.878Z,30.30
2022-09-30T12:19:49.789Z,31.77
2022-09-30T12:22:42.124Z,31.17
2022-09-30T12:25:37.960Z,32.10
2022-09-30T12:28:51.878Z,31.97
2022-09-30T12:32:09.551Z,32.43
2022-09-30T12:35:15.942Z,30.93
2022-09-30T12:38:18.046Z,31.37
2022-09-30T12:41:27.964Z,31.23
2022-09-30T12:44:41.164Z,34.00
2022-09-30T12:47:37.626Z,34.20
2022-09-30T12:50:29.802Z,34.60
2022-09-30T12:53:22.899Z,35.43
2022-09-30T12:56:15.832Z,34.30
2022-09-30T12:59:04.872Z,32.97
2022-09-30T13:01:53.672Z,34.03
2022-09-30T13:04:44.980Z,34.70
2022-09-30T13:07:34.761Z,34.43
2022-09-30T13:10:29.141Z,34.87
2022-09-30T13:13:24.742Z,35.80
2022-09-30T13:16:13.009Z,35.03
2022-09-30T13:19:03.376Z,34.67
2022-09-30T13:21:52.986Z,33.87
2022-09-30T13:25:12.159Z,31.00
2022-09-30T13:28:29.869Z,31.30
2022-09-30T13:31:20.032Z,31.23
2022-09-30T13:34:12.714Z,31.40
2022-09-30T13:37:03.881Z,31.17
2022-09-30T13:39:56.170Z,31.17
2022-09-30T13:42:52.346Z,31.13
2022-09-30T13:45:42.020Z,30.77
2022-09-30T13:48:33.712Z,29.70
2022-09-30T13:51:25.509Z,30.53
2022-09-30T13:54:24.178Z,29.73
2022-09-30T13:57:20.005Z,28.17
2022-09-30T14:00:14.068Z,27.97
2022-09-30T14:03:13.983Z,28.97
2022-09-30T14:06:11.524Z,30.40
2022-09-30T14:09:20.653Z,30.00
2022-09-30T14:12:23.583Z,31.43
2022-09-30T14:15:57.331Z,31.60
2022-09-30T14:19:11.461Z,32.00
2022-09-30T14:22:04.162Z,33.47
2022-09-30T14:24:54.342Z,33.63
2022-09-30T14:27:55.434Z,32.67
2022-09-30T14:31:05.922Z,33.30
2022-09-30T14:33:54.632Z,33.50
2022-09-30T14:36:43.352Z,32.17
2022-09-30T14:39:33.579Z,30.60
2022-09-30T14:42:29.813Z,31.17
2022-09-30T14:45:24.773Z,32.03
2022-09-30T14:48:18.615Z,32.80
2022-09-30T14:51:10.700Z,33.27
2022-09-30T14:54:02.118Z,31.70
2022-09-30T14:56:54.779Z,30.07
2022-09-30T14:59:44.561Z,29.77
2022-09-30T15:02:33.730Z,29.57
2022-09-30T15:05:22.293Z,30.17
2022-09-30T15:08:18.489Z,30.40
2022-09-30T15:11:07.152Z,31.57
2022-09-30T15:14:01.288Z,31.50
2022-09-30T15:16:53.072Z,30.60
2022-09-30T15:19:45.137Z,30.80
2022-09-30T15:22:33.853Z,30.40
2022-09-30T15:25:23.156Z,30.73
2022-09-30T15:28:12.283Z,30.33
2022-09-30T15:31:00.718Z,30.90
2022-09-30T15:33:50.657Z,31.33
2022-09-30T15:36:39.261Z,31.30
2022-09-30T15:39:50.591Z,31.03
2022-09-30T15:42:43.622Z,31.07
2022-09-30T15:45:35.767Z,31.10
2022-09-30T15:48:36.164Z,31.20
2022-09-30T15:51:38.213Z,32.57
2022-09-30T15:54:38.066Z,31.73
2022-09-30T15:57:44.568Z,34.00
2022-09-30T16:00:39.673Z,34.27
2022-09-30T16:03:30.542Z,34.70
2022-09-30T16:06:26.098Z,33.10
2022-09-30T16:09:27.283Z,33.63
2022-09-30T16:12:19.484Z,33.33
2022-09-30T16:15:15.668Z,33.70
2022-09-30T16:18:04.134Z,33.93
2022-09-30T16:21:00.671Z,33.97
2022-09-30T16:23:49.071Z,34.27
2022-09-30T16:26:45.729Z,33.03
2022-09-30T16:29:34.523Z,34.07
2022-09-30T16:32:23.795Z,33.57
2022-09-30T16:35:18.956Z,34.03
2022-09-30T16:38:08.318Z,33.77
2022-09-30T16:41:00.589Z,33.63
2022-09-30T16:43:51.160Z,34.80
2022-09-30T16:46:39.491Z,34.47
2022-09-30T16:49:28.189Z,35.37
2022-09-30T16:52:17.492Z,35.77
2022-09-30T16:55:06.564Z,35.23
2022-09-30T16:57:58.124Z,34.20
2022-09-30T17:00:47.823Z,34.13
2022-09-30T17:03:36.270Z,34.60
2022-09-30T17:06:28.785Z,34.13
2022-09-30T17:09:17.181Z,35.90
2022-09-30T17:12:05.732Z,42.83
2022-09-30T17:14:54.107Z,40.93
2022-09-30T17:17:43.930Z,39.43
2022-09-30T17:20:32.253Z,37.17
2022-09-30T17:23:21.248Z,37.93
2022-09-30T17:26:09.602Z,35.13
2022-09-30T17:29:14.583Z,36.40
2022-09-30T17:32:07.406Z,37.70
2022-09-30T17:34:57.163Z,39.13
2022-09-30T17:37:46.603Z,42.73
2022-09-30T17:40:51.805Z,42.27
2022-09-30T17:43:40.306Z,43.57
2022-09-30T17:46:29.132Z,44.97
2022-09-30T17:49:22.006Z,44.97
2022-09-30T17:52:15.072Z,44.90
2022-09-30T17:55:03.618Z,44.57
2022-09-30T17:57:54.196Z,44.67
2022-09-30T18:00:42.952Z,44.80
2022-09-30T18:03:32.439Z,44.60
2022-09-30T18:06:21.508Z,44.60
2022-09-30T18:09:11.426Z,44.20
2022-09-30T18:12:00.435Z,44.17
2022-09-30T18:14:48.804Z,43.73
2022-09-30T18:17:37.280Z,44.70
2022-09-30T18:20:25.884Z,44.83
2022-09-30T18:23:15.049Z,47.00
2022-09-30T18:26:04.872Z,47.43
2022-09-30T18:28:53.585Z,45.80
2022-09-30T18:31:43.322Z,46.10
2022-09-30T18:34:31.821Z,46.70
2022-09-30T18:37:20.520Z,45.50
2022-09-30T18:40:09.945Z,44.93
2022-09-30T18:43:02.592Z,44.67
2022-09-30T18:45:56.524Z,43.97
2022-09-30T18:48:45.285Z,45.53
2022-09-30T18:51:34.009Z,45.93
2022-09-30T18:54:24.071Z,46.97
2022-09-30T18:57:12.447Z,45.97
2022-09-30T19:00:02.958Z,46.00
2022-09-30T19:02:53.274Z,45.77
2022-09-30T19:05:42.775Z,46.70
2022-09-30T19:08:31.509Z,47.03
2022-09-30T19:11:20.266Z,45.93
2022-09-30T19:14:10.739Z,46.53
2022-09-30T19:17:00.477Z,47.03
2022-09-30T19:19:50.897Z,46.20
2022-09-30T19:22:39.288Z,46.93
2022-09-30T19:25:27.649Z,48.00
2022-09-30T19:28:16.360Z,48.13
2022-09-30T19:31:08.827Z,49.03
2022-09-30T19:33:59.195Z,48.00
2022-09-30T19:36:51.871Z,50.33
2022-09-30T19:39:45.920Z,49.33
2022-09-30T19:42:37.939Z,48.13
2022-09-30T19:45:27.378Z,49.10
2022-09-30T19:48:15.877Z,47.43
2022-09-30T19:51:08.742Z,47.17
2022-09-30T19:54:06.343Z,47.50
2022-09-30T19:56:55.541Z,47.07
2022-09-30T19:59:43.929Z,47.03
2022-09-30T20:02:32.409Z,48.17
2022-09-30T20:05:22.571Z,48.37
2022-09-30T20:08:12.704Z,47.70
2022-09-30T20:11:06.655Z,47.80
2022-09-30T20:14:12.126Z,48.20
2022-09-30T20:17:00.421Z,47.30
2022-09-30T20:20:09.149Z,45.73
2022-09-30T20:23:01.365Z,46.80
2022-09-30T20:25:52.846Z,44.97
2022-09-30T20:28:42.028Z,51.53
2022-09-30T20:31:31.853Z,45.80
2022-09-30T20:34:20.736Z,47.27
2022-09-30T20:37:09.254Z,47.47
2022-09-30T20:39:57.885Z,46.77
2022-09-30T20:42:47.935Z,47.70
2022-09-30T20:45:36.590Z,48.07
2022-09-30T20:48:26.437Z,48.07
2022-09-30T20:51:19.349Z,48.03
2022-09-30T20:54:07.739Z,49.90
2022-09-30T20:57:07.304Z,50.23
2022-09-30T20:59:58.501Z,51.20
2022-09-30T21:02:46.898Z,52.63
2022-09-30T21:05:36.134Z,51.60
2022-09-30T21:08:25.067Z,51.33
2022-09-30T21:11:14.915Z,52.67
2022-09-30T21:14:06.126Z,51.80
2022-09-30T21:16:55.905Z,53.67
2022-09-30T21:19:44.446Z,61.07
2022-09-30T21:22:32.807Z,53.00
2022-09-30T21:25:21.255Z,51.97
2022-09-30T21:28:09.645Z,52.50
2022-09-30T21:30:58.344Z,55.30
2022-09-30T21:33:51.498Z,55.70
2022-09-30T21:36:39.902Z,56.93
2022-09-30T21:39:28.273Z,58.87
2022-09-30T21:42:16.697Z,61.30
2022-09-30T21:45:05.849Z,62.27
2022-09-30T21:48:02.061Z,63.43
2022-09-30T21:50:51.871Z,64.37
2022-09-30T21:53:40.394Z,66.17
2022-09-30T21:56:29.357Z,67.70
2022-09-30T21:59:18.084Z,67.87
2022-09-30T22:02:06.666Z,67.20
2022-09-30T22:04:55.030Z,66.60
2022-09-30T22:07:44.620Z,68.97
2022-09-30T22:10:33.038Z,71.40
2022-09-30T22:13:21.400Z,68.90
2022-09-30T22:16:09.822Z,72.03
2022-09-30T22:19:00.619Z,71.30
2022-09-30T22:21:49.142Z,72.97
2022-09-30T22:24:39.044Z,71.83
2022-09-30T22:27:27.398Z,73.77
2022-09-30T22:30:15.811Z,74.50
2022-09-30T22:33:21.695Z,74.93
2022-09-30T22:36:27.744Z,75.77
2022-09-30T22:39:16.189Z,76.97
2022-09-30T22:42:07.367Z,75.57
2022-09-30T22:44:55.720Z,74.37
2022-09-30T22:47:44.194Z,73.40
2022-09-30T22:50:36.013Z,75.30
2022-09-30T22:53:24.726Z,76.80
2022-09-30T22:56:13.090Z,74.80
2022-09-30T22:59:03.062Z,76.27
2022-09-30T23:01:51.900Z,76.67
2022-09-30T23:04:40.237Z,75.20
2022-09-30T23:07:28.594Z,74.97
2022-09-30T23:10:17.164Z,75.43
2022-09-30T23:13:08.952Z,75.53
2022-09-30T23:16:00.230Z,78.33
2022-09-30T23:18:48.636Z,77.50
2022-09-30T23:21:37.620Z,77.30
2022-09-30T23:24:26.224Z,78.70
2022-09-30T23:27:14.680Z,79.17
2022-09-30T23:30:03.034Z,79.23
2022-09-30T23:32:52.690Z,78.00
2022-09-30T23:35:46.257Z,79.70
2022-09-30T23:38:35.123Z,79.60
2022-09-30T23:41:23.563Z,79.20
2022-09-30T23:44:11.845Z,77.43
2022-09-30T23:47:17.459Z,78.87
2022-09-30T23:50:08.472Z,79.13
2022-09-30T23:52:58.654Z,79.40
2022-09-30T23:55:55.401Z,78.00
2022-09-30T23:58:44.584Z,79.67
